Time;durP1;ratioP1;P1;durP2;ratioP2;P2;SDS_P1;SDS_P2;PMS_P1;PMS_P2;Temp;Humidity;BMP_temperature;BMP_pressure;BME280_temperature;BME280_humidity;BME280_pressure;Samples;Min_cycle;Max_cycle;Signal;HPM_P1;HPM_P2
2021/08/09 00:01:56;;;;;;;4.57;1.40;;;;;;;11.92;80.57;96840.47;3572778;40;20560;-73
2021/08/09 00:04:24;;;;;;;3.87;1.50;;;;;;;11.94;80.91;96840.34;3572628;39;20798;-73
2021/08/09 00:06:52;;;;;;;6.70;2.10;;;;;;;11.93;80.73;96839.50;3558631;40;20587;-73
2021/08/09 00:09:20;;;;;;;3.90;1.47;;;;;;;12.06;79.93;96832.44;3572591;40;20812;-72
2021/08/09 00:11:48;;;;;;;4.90;1.70;;;;;;;12.09;80.43;96820.03;3571507;40;20454;-72
2021/08/09 00:14:16;;;;;;;3.03;1.33;;;;;;;12.26;79.13;96831.00;3562012;40;20788;-73
2021/08/09 00:16:48;;;;;;;6.33;1.87;;;;;;;12.26;79.24;96822.31;3564254;40;20461;-72
2021/08/09 00:19:18;;;;;;;2.77;1.40;;;;;;;12.19;79.60;96823.69;3571338;40;20463;-73
2021/08/09 00:21:46;;;;;;;7.57;2.00;;;;;;;12.16;80.49;96824.75;3561678;40;20454;-73
2021/08/09 00:24:13;;;;;;;3.77;1.80;;;;;;;12.02;80.59;96815.22;3568991;40;20457;-72
2021/08/09 00:26:41;;;;;;;6.00;1.53;;;;;;;11.92;80.80;96816.84;3571488;40;20957;-75
2021/08/09 00:29:09;;;;;;;1.63;1.43;;;;;;;11.71;81.78;96818.31;3568866;39;20562;-73
2021/08/09 00:31:37;;;;;;;6.90;1.80;;;;;;;11.72;81.95;96819.97;3563700;40;20543;-73
2021/08/09 00:34:05;;;;;;;9.00;1.70;;;;;;;11.84;80.90;96808.66;3563488;39;20775;-73
2021/08/09 00:36:35;;;;;;;3.60;1.97;;;;;;;11.86;81.23;96809.38;3571799;40;20536;-73
2021/08/09 00:39:03;;;;;;;8.20;1.80;;;;;;;11.76;81.79;96800.44;3573157;39;20473;-73
2021/08/09 00:41:31;;;;;;;7.03;1.63;;;;;;;11.66;82.13;96813.38;3572799;40;20456;-73
2021/08/09 00:43:59;;;;;;;2.33;1.20;;;;;;;11.76;81.92;96816.19;3570549;40;20435;-73
2021/08/09 00:46:29;;;;;;;5.03;1.97;;;;;;;11.80;81.72;96815.03;3572694;40;20982;-73
2021/08/09 00:48:57;;;;;;;8.93;1.60;;;;;;;11.83;81.16;96823.53;3573175;39;20535;-74
2021/08/09 00:51:25;;;;;;;4.30;1.30;;;;;;;12.04;80.08;96821.22;3570149;40;20462;-73
2021/08/09 00:53:55;;;;;;;5.00;1.37;;;;;;;12.04;79.68;96823.84;3575264;40;20806;-73
2021/08/09 00:56:23;;;;;;;3.33;1.43;;;;;;;12.12;79.33;96823.28;3571813;40;20469;-72
2021/08/09 00:58:50;;;;;;;2.90;1.43;;;;;;;12.04;79.72;96831.72;3570318;40;20678;-73
2021/08/09 01:01:19;;;;;;;14.40;1.70;;;;;;;11.96;79.61;96828.78;3562225;40;20709;-73
2021/08/09 01:03:47;;;;;;;6.90;1.90;;;;;;;11.85;80.47;96828.66;3561632;40;20706;-73
2021/08/09 01:06:16;;;;;;;6.00;2.00;;;;;;;11.79;81.12;96819.44;3570901;40;20886;-75
2021/08/09 01:08:58;;;;;;;3.00;1.63;;;;;;;11.76;81.00;96822.31;3560978;40;20568;-73
2021/08/09 01:11:31;;;;;;;1.83;1.17;;;;;;;11.85;80.86;96826.06;3562109;40;21128;-73
2021/08/09 01:14:05;;;;;;;3.90;1.97;;;;;;;11.93;79.74;96823.75;3572010;39;20448;-74
2021/08/09 01:16:37;;;;;;;1.77;1.40;;;;;;;11.89;79.66;96827.53;3562648;40;20477;-73
2021/08/09 01:19:16;;;;;;;9.73;1.43;;;;;;;11.82;80.29;96815.78;3561907;39;20841;-74
2021/08/09 01:21:45;;;;;;;5.03;1.60;;;;;;;11.78;80.17;96817.78;3574003;40;21105;-73
2021/08/09 01:24:23;;;;;;;2.60;1.00;;;;;;;11.70;80.98;96822.69;3572661;39;20450;-73
2021/08/09 01:27:00;;;;;;;6.70;1.30;;;;;;;11.58;81.82;96813.91;3554096;40;20730;-73
2021/08/09 01:29:33;;;;;;;5.97;1.13;;;;;;;11.63;81.10;96822.31;3552672;40;20860;-72
2021/08/09 01:32:02;;;;;;;6.90;1.50;;;;;;;11.76;80.75;96819.69;3551861;40;20459;-74
2021/08/09 01:34:31;;;;;;;2.73;1.27;;;;;;;11.90;79.95;96828.38;3551932;40;20701;-72
2021/08/09 01:37:00;;;;;;;2.40;1.40;;;;;;;11.93;80.00;96826.38;3551222;40;20700;-72
2021/08/09 01:39:29;;;;;;;2.23;1.47;;;;;;;11.89;80.09;96827.53;3548760;40;20452;-72
2021/08/09 01:41:59;;;;;;;2.93;1.03;;;;;;;11.87;80.14;96826.78;3547558;40;20456;-72
2021/08/09 01:44:27;;;;;;;3.13;1.20;;;;;;;11.82;80.29;96828.91;3547832;40;20923;-72
2021/08/09 01:46:56;;;;;;;5.00;2.00;;;;;;;11.74;80.94;96828.56;3548722;40;20772;-72
2021/08/09 01:49:24;;;;;;;2.63;1.20;;;;;;;11.70;81.27;96832.38;3549390;40;20549;-72
2021/08/09 01:51:53;;;;;;;3.33;1.73;;;;;;;11.65;81.44;96828.28;3548599;40;20818;-72
2021/08/09 01:54:21;;;;;;;4.50;2.00;;;;;;;11.55;81.84;96835.13;3549347;40;20821;-72
2021/08/09 01:56:50;;;;;;;3.23;1.73;;;;;;;11.61;81.44;96839.94;3548480;40;20547;-72
2021/08/09 01:59:18;;;;;;;5.30;1.50;;;;;;;11.53;81.96;96836.19;3538972;40;20831;-72
2021/08/09 02:01:45;;;;;;;3.40;1.97;;;;;;;11.51;82.03;96835.44;3550018;40;20447;-72
2021/08/09 02:04:15;;;;;;;6.80;1.97;;;;;;;11.55;81.68;96844.78;3550687;40;20870;-72
2021/08/09 02:06:43;;;;;;;9.13;1.87;;;;;;;11.38;82.54;96830.19;3551363;40;20437;-72
2021/08/09 02:09:11;;;;;;;10.30;2.13;;;;;;;11.26;83.09;96832.69;3551037;40;20568;-72
2021/08/09 02:11:45;;;;;;;3.87;1.80;;;;;;;11.20;83.51;96840.13;3550699;40;20448;-73
2021/08/09 02:14:16;;;;;;;3.10;1.73;;;;;;;11.17;83.51;96833.34;3548189;40;20436;-72
2021/08/09 02:16:53;;;;;;;3.77;1.97;;;;;;;11.22;83.62;96840.88;3548685;40;21055;-73
2021/08/09 02:19:29;;;;;;;3.60;2.30;;;;;;;11.16;83.81;96839.50;3553040;40;20911;-73
2021/08/09 02:22:07;;;;;;;4.80;1.30;;;;;;;11.16;83.65;96836.88;3552325;40;20549;-73
2021/08/09 02:24:58;;;;;;;5.23;1.90;;;;;;;11.05;83.72;96834.13;3555669;40;20474;-73
2021/08/09 02:27:34;;;;;;;7.40;1.70;;;;;;;11.00;83.77;96859.81;3552600;40;20536;-72
2021/08/09 02:30:02;;;;;;;7.87;1.40;;;;;;;11.09;83.10;96851.31;3569124;40;20819;-72
2021/08/09 02:32:32;;;;;;;3.77;1.50;;;;;;;11.12;83.22;96847.69;3571478;40;20883;-73
2021/08/09 02:35:03;;;;;;;6.27;2.00;;;;;;;11.00;83.77;96852.78;3570325;39;20452;-75
2021/08/09 02:37:32;;;;;;;2.50;1.43;;;;;;;11.01;83.50;96851.00;3571579;40;20442;-74
2021/08/09 02:40:00;;;;;;;2.07;1.40;;;;;;;10.96;84.21;96858.34;3561728;40;20465;-74
2021/08/09 02:42:28;;;;;;;3.93;1.73;;;;;;;10.88;84.19;96849.22;3568721;40;20442;-74
2021/08/09 02:44:57;;;;;;;3.10;1.60;;;;;;;10.84;84.38;96845.13;3569531;39;20521;-74
2021/08/09 02:47:26;;;;;;;5.23;1.30;;;;;;;10.86;84.55;96853.72;3570722;40;20438;-74
2021/08/09 02:49:58;;;;;;;10.33;1.30;;;;;;;10.86;84.37;96847.63;3562467;40;20716;-73
2021/08/09 02:52:28;;;;;;;8.57;2.00;;;;;;;10.88;84.25;96851.81;3571279;40;20932;-74
2021/08/09 02:54:58;;;;;;;2.03;1.60;;;;;;;10.82;84.42;96848.75;3563619;40;20518;-74
2021/08/09 02:57:28;;;;;;;11.00;1.77;;;;;;;10.76;85.12;96850.03;3559881;40;20576;-73
2021/08/09 02:59:57;;;;;;;3.43;1.33;;;;;;;10.70;85.25;96858.25;3572443;39;20821;-73
2021/08/09 03:02:28;;;;;;;11.03;2.03;;;;;;;10.77;85.14;96856.94;3569789;40;20538;-74
2021/08/09 03:04:57;;;;;;;3.63;1.40;;;;;;;10.68;84.83;96854.91;3570510;39;20769;-73
2021/08/09 03:07:29;;;;;;;1.90;1.50;;;;;;;10.59;85.33;96860.75;3572990;40;20833;-74
2021/08/09 03:09:57;;;;;;;4.10;1.60;;;;;;;10.54;85.38;96858.41;3559518;40;20522;-74
2021/08/09 03:12:27;;;;;;;6.13;1.60;;;;;;;10.58;84.96;96859.06;3570562;40;20852;-74
2021/08/09 03:14:55;;;;;;;3.83;1.43;;;;;;;10.56;85.42;96863.56;3577401;39;20480;-74
2021/08/09 03:17:23;;;;;;;5.90;1.53;;;;;;;10.58;85.22;96853.81;3570704;40;20818;-74
2021/08/09 03:19:51;;;;;;;9.90;1.67;;;;;;;10.59;85.46;96848.50;3554498;40;20570;-74
2021/08/09 03:22:19;;;;;;;1.83;1.50;;;;;;;10.60;85.39;96854.56;3572571;40;20740;-73
2021/08/09 03:24:48;;;;;;;3.17;1.50;;;;;;;10.73;85.46;96850.22;3570950;39;20474;-74
2021/08/09 03:27:16;;;;;;;5.40;1.60;;;;;;;10.73;85.80;96858.06;3570270;40;20557;-77
2021/08/09 03:29:44;;;;;;;3.30;1.67;;;;;;;10.78;85.24;96855.13;3572623;39;20906;-75
2021/08/09 03:32:12;;;;;;;7.03;1.40;;;;;;;10.77;85.31;96853.47;3572852;39;20909;-75
2021/08/09 03:34:40;;;;;;;5.37;2.17;;;;;;;10.73;85.37;96844.97;3569215;40;20465;-72
2021/08/09 03:37:08;;;;;;;2.83;1.40;;;;;;;10.78;85.20;96835.03;3573467;40;20450;-73
2021/08/09 03:39:35;;;;;;;8.17;2.47;;;;;;;10.79;85.11;96846.34;3569648;39;21125;-74
2021/08/09 03:42:09;;;;;;;3.63;2.30;;;;;;;10.81;85.21;96839.22;3555621;40;20850;-74
2021/08/09 03:44:37;;;;;;;4.20;1.60;;;;;;;10.85;84.97;96840.72;3572847;40;20494;-74
2021/08/09 03:47:05;;;;;;;6.67;1.63;;;;;;;10.89;84.65;96843.00;3554311;40;20907;-73
2021/08/09 03:49:33;;;;;;;4.13;1.50;;;;;;;10.80;85.34;96838.41;3581663;40;20466;-74
2021/08/09 03:52:01;;;;;;;7.50;1.30;;;;;;;10.78;85.33;96840.28;3557767;40;20785;-74
2021/08/09 03:54:28;;;;;;;6.53;2.07;;;;;;;10.84;85.00;96839.88;3575819;39;21090;-74
2021/08/09 03:56:56;;;;;;;3.63;1.87;;;;;;;10.77;85.39;96841.22;3572365;40;20461;-73
2021/08/09 03:59:26;;;;;;;9.50;1.73;;;;;;;10.87;84.84;96839.66;3555636;40;20549;-73
2021/08/09 04:01:53;;;;;;;4.63;1.90;;;;;;;10.87;84.44;96839.66;3573007;40;20598;-75
2021/08/09 04:04:21;;;;;;;5.27;1.90;;;;;;;10.72;84.55;96837.22;3570694;40;20454;-72
2021/08/09 04:06:49;;;;;;;4.70;1.93;;;;;;;10.48;86.10;96846.56;3571414;40;20449;-73
2021/08/09 04:09:17;;;;;;;4.97;1.80;;;;;;;10.54;86.29;96847.09;3572202;40;20867;-74
2021/08/09 04:11:45;;;;;;;6.10;2.30;;;;;;;10.45;86.38;96841.53;3573475;40;20462;-73
2021/08/09 04:14:13;;;;;;;16.30;2.57;;;;;;;10.48;86.20;96845.72;3573234;39;20566;-74
2021/08/09 04:16:43;;;;;;;7.27;1.80;;;;;;;10.55;86.02;96847.00;3574481;40;20904;-74
2021/08/09 04:19:21;;;;;;;6.17;2.30;;;;;;;10.52;85.91;96846.38;3556919;39;20479;-78
2021/08/09 04:21:51;;;;;;;5.03;1.90;;;;;;;10.37;86.30;96846.41;3565821;40;20869;-74
2021/08/09 04:24:19;;;;;;;8.43;2.97;;;;;;;10.17;85.69;96852.03;3573052;40;20767;-74
2021/08/09 04:26:47;;;;;;;6.00;2.83;;;;;;;9.93;86.57;96839.56;3555741;40;20463;-74
2021/08/09 04:29:15;;;;;;;4.50;3.07;;;;;;;9.96;86.64;96836.75;3575027;39;20867;-75
2021/08/09 04:31:45;;;;;;;3.60;2.77;;;;;;;10.25;85.78;96832.31;3562324;40;20456;-74
2021/08/09 04:34:13;;;;;;;5.07;2.50;;;;;;;10.48;85.72;96830.84;3571312;39;20546;-75
2021/08/09 04:36:41;;;;;;;7.00;2.37;;;;;;;10.58;85.84;96843.34;3574778;40;20657;-74
2021/08/09 04:39:09;;;;;;;6.90;2.23;;;;;;;10.57;86.06;96842.50;3571031;40;20777;-75
2021/08/09 04:41:37;;;;;;;4.13;1.63;;;;;;;10.49;86.17;96850.03;3572991;40;20470;-76
2021/08/09 04:44:23;;;;;;;9.30;2.07;;;;;;;10.51;87.04;96863.88;3572562;40;20460;-74
2021/08/09 04:46:55;;;;;;;4.27;1.97;;;;;;;10.66;86.01;96860.25;3549252;40;20516;-74
2021/08/09 04:49:23;;;;;;;7.50;1.90;;;;;;;10.48;86.92;96850.94;3569602;40;20547;-74
2021/08/09 04:51:51;;;;;;;2.47;1.57;;;;;;;10.73;86.39;96842.34;3568530;40;20438;-74
2021/08/09 04:54:19;;;;;;;6.10;1.63;;;;;;;10.82;85.96;96833.91;3569686;39;20524;-75
2021/08/09 04:56:47;;;;;;;5.50;1.87;;;;;;;10.72;85.97;96830.19;3560964;40;20960;-75
2021/08/09 04:59:15;;;;;;;7.97;2.43;;;;;;;10.68;86.11;96832.19;3567785;40;20687;-75
2021/08/09 05:01:42;;;;;;;2.63;1.87;;;;;;;10.82;85.97;96852.25;3571564;40;20451;-74
2021/08/09 05:04:12;;;;;;;2.70;1.93;;;;;;;10.88;85.98;96851.00;3569687;39;20449;-74
2021/08/09 05:06:40;;;;;;;2.77;1.57;;;;;;;10.91;86.17;96849.94;3569341;40;20438;-74
2021/08/09 05:09:08;;;;;;;2.47;1.30;;;;;;;10.89;86.51;96836.94;3570047;39;20776;-75
2021/08/09 05:11:36;;;;;;;3.80;1.87;;;;;;;11.10;85.90;96833.84;3570751;40;20449;-74
2021/08/09 05:14:04;;;;;;;2.20;1.80;;;;;;;11.22;85.57;96844.31;3571672;39;20921;-74
2021/08/09 05:16:34;;;;;;;3.53;1.57;;;;;;;11.33;84.99;96850.63;3570275;40;20445;-74
2021/08/09 05:19:04;;;;;;;8.20;2.90;;;;;;;11.12;85.61;96853.75;3570651;40;20461;-74
2021/08/09 05:21:34;;;;;;;2.07;1.70;;;;;;;11.17;85.33;96851.69;3571356;40;20895;-74
2021/08/09 05:24:04;;;;;;;8.00;2.00;;;;;;;11.51;84.32;96853.81;3563077;39;20485;-74
2021/08/09 05:26:33;;;;;;;5.00;1.90;;;;;;;11.65;83.79;96851.88;3554728;40;20797;-73
2021/08/09 05:29:01;;;;;;;9.83;2.43;;;;;;;11.48;83.15;96849.59;3570640;39;20472;-73
2021/08/09 05:31:29;;;;;;;3.80;2.30;;;;;;;11.62;82.48;96849.50;3570627;40;20445;-73
2021/08/09 05:33:58;;;;;;;6.27;1.70;;;;;;;11.78;82.42;96862.38;3573134;40;20462;-74
2021/08/09 05:36:27;;;;;;;3.73;2.10;;;;;;;11.88;80.91;96859.97;3575677;40;20484;-73
2021/08/09 05:38:56;;;;;;;35.43;2.60;;;;;;;11.77;82.55;96859.84;3570621;40;20461;-73
2021/08/09 05:41:24;;;;;;;4.60;1.90;;;;;;;11.86;82.60;96860.06;3571301;40;20566;-73
2021/08/09 05:43:52;;;;;;;5.63;1.50;;;;;;;12.18;81.14;96858.78;3571158;40;20457;-73
2021/08/09 05:46:20;;;;;;;8.73;1.70;;;;;;;12.20;80.97;96854.25;3561299;40;20756;-76
2021/08/09 05:48:48;;;;;;;5.67;2.53;;;;;;;12.42;80.11;96850.91;3562500;40;20466;-72
2021/08/09 05:51:16;;;;;;;279.47;138.43;;;;;;;12.77;78.76;96850.13;3568755;40;20578;-73
2021/08/09 05:53:44;;;;;;;22.67;13.30;;;;;;;12.95;77.91;96848.75;3572921;40;20461;-74
2021/08/09 05:56:14;;;;;;;20.90;10.53;;;;;;;13.21;78.17;96848.59;3553048;40;20960;-75
2021/08/09 05:58:42;;;;;;;4.07;1.77;;;;;;;13.71;76.62;96861.53;3572223;40;20452;-75
2021/08/09 06:01:10;;;;;;;4.30;1.30;;;;;;;13.82;76.04;96865.00;3554705;40;20780;-75
2021/08/09 06:03:41;;;;;;;6.27;2.23;;;;;;;13.88;75.79;96860.19;3563130;40;20695;-75
2021/08/09 06:06:17;;;;;;;5.43;2.00;;;;;;;13.80;76.75;96866.09;3570177;40;20702;-75
2021/08/09 06:08:45;;;;;;;7.67;2.10;;;;;;;13.80;76.91;96863.47;3570005;40;20553;-75
2021/08/09 06:11:15;;;;;;;3.47;1.50;;;;;;;13.62;76.56;96863.91;3570564;40;20476;-74
2021/08/09 06:13:43;;;;;;;3.00;1.70;;;;;;;13.71;76.70;96858.91;3556479;40;20532;-75
2021/08/09 06:16:11;;;;;;;6.47;1.60;;;;;;;13.69;75.89;96852.91;3570806;40;20449;-74
2021/08/09 06:18:39;;;;;;;2.80;1.60;;;;;;;14.07;73.87;96836.75;3569751;40;20698;-74
2021/08/09 06:21:07;;;;;;;3.23;1.27;;;;;;;14.12;74.62;96853.03;3569988;39;20561;-75
2021/08/09 06:23:35;;;;;;;5.33;1.70;;;;;;;14.40;74.01;96841.13;3552204;40;20519;-75
2021/08/09 06:26:03;;;;;;;3.90;1.60;;;;;;;14.43;73.69;96840.88;3557035;40;20954;-74
2021/08/09 06:28:35;;;;;;;2.93;1.10;;;;;;;14.34;73.99;96846.06;3561777;40;20493;-74
2021/08/09 06:31:03;;;;;;;5.10;1.60;;;;;;;14.23;74.90;96839.03;3569225;40;20961;-74
2021/08/09 06:33:30;;;;;;;5.97;1.57;;;;;;;14.61;73.33;96835.13;3559216;40;20552;-75
2021/08/09 06:35:59;;;;;;;3.00;1.47;;;;;;;14.26;73.74;96845.84;3570067;39;20461;-74
2021/08/09 06:38:26;;;;;;;1.83;1.33;;;;;;;14.59;73.58;96847.59;3569783;40;20582;-74
2021/08/09 06:40:55;;;;;;;2.80;1.23;;;;;;;15.37;71.31;96843.75;3571608;39;20758;-75
2021/08/09 06:43:23;;;;;;;3.13;1.20;;;;;;;15.36;69.81;96841.25;3571681;40;20458;-74
2021/08/09 06:45:52;;;;;;;5.73;1.53;;;;;;;15.36;70.06;96842.06;3569752;40;20501;-75
2021/08/09 06:48:20;;;;;;;3.03;1.67;;;;;;;15.49;70.03;96846.34;3568766;40;20845;-75
2021/08/09 06:50:48;;;;;;;2.30;1.27;;;;;;;15.73;69.16;96853.97;3571556;39;20454;-74
2021/08/09 06:53:17;;;;;;;5.43;1.13;;;;;;;15.81;68.75;96852.34;3570488;40;20815;-74
2021/08/09 06:55:45;;;;;;;4.83;1.43;;;;;;;15.94;69.13;96846.84;3559843;40;20485;-74
2021/08/09 06:58:13;;;;;;;2.87;1.03;;;;;;;15.99;67.33;96855.22;3571341;40;20442;-74
2021/08/09 07:00:41;;;;;;;4.10;1.30;;;;;;;16.52;66.74;96856.75;3561601;40;20960;-71
2021/08/09 07:03:10;;;;;;;4.10;1.57;;;;;;;16.13;65.99;96856.66;3577988;40;20538;-72
2021/08/09 07:05:42;;;;;;;3.30;1.50;;;;;;;16.19;68.20;96853.50;3576421;39;20465;-72
2021/08/09 07:08:12;;;;;;;5.37;1.20;;;;;;;16.52;66.44;96848.81;3581820;40;20449;-73
2021/08/09 07:10:41;;;;;;;3.07;1.00;;;;;;;16.29;66.41;96850.88;3551828;40;20516;-71
2021/08/09 07:13:09;;;;;;;5.63;1.20;;;;;;;16.40;66.06;96860.47;3571293;40;20457;-72
2021/08/09 07:15:39;;;;;;;8.40;1.37;;;;;;;16.48;66.19;96859.81;3570628;40;20585;-72
2021/08/09 07:18:07;;;;;;;3.17;1.20;;;;;;;16.33;65.79;96857.56;3571665;40;20453;-73
2021/08/09 07:20:36;;;;;;;2.93;1.07;;;;;;;16.26;66.31;96866.16;3571132;40;21164;-73
2021/08/09 07:23:04;;;;;;;2.60;1.33;;;;;;;16.54;65.39;96856.63;3551557;40;20489;-73
2021/08/09 07:25:33;;;;;;;4.07;1.40;;;;;;;16.70;65.87;96858.72;3571652;40;20476;-73
2021/08/09 07:28:01;;;;;;;1.20;1.00;;;;;;;17.22;65.04;96861.16;3574107;39;20686;-72
2021/08/09 07:30:29;;;;;;;3.07;1.13;;;;;;;17.56;64.11;96857.06;3572443;39;20700;-73
2021/08/09 07:32:57;;;;;;;3.13;1.10;;;;;;;17.92;62.39;96843.19;3572736;40;20562;-74
2021/08/09 07:35:25;;;;;;;3.07;1.50;;;;;;;18.01;60.27;96847.59;3570746;39;20481;-73
2021/08/09 07:37:54;;;;;;;3.43;1.23;;;;;;;18.62;58.26;96846.19;3572091;40;20543;-73
2021/08/09 07:40:22;;;;;;;13.37;1.90;;;;;;;18.22;58.91;96841.25;3569431;40;20492;-72
2021/08/09 07:42:52;;;;;;;5.67;1.20;;;;;;;18.49;58.81;96843.06;3568993;40;20448;-73
2021/08/09 07:45:21;;;;;;;1.20;0.73;;;;;;;18.91;56.86;96858.41;3571621;39;20474;-74
2021/08/09 07:47:52;;;;;;;6.43;0.80;;;;;;;19.00;57.77;96857.53;3570735;40;20898;-73
2021/08/09 07:50:21;;;;;;;3.07;1.07;;;;;;;18.76;57.81;96856.28;3561086;40;20687;-73
2021/08/09 07:52:49;;;;;;;3.33;1.10;;;;;;;18.82;57.18;96852.22;3572102;40;20838;-74
2021/08/09 07:55:19;;;;;;;5.93;1.30;;;;;;;18.23;58.22;96862.31;3574172;39;20671;-73
2021/08/09 07:57:46;;;;;;;5.30;0.90;;;;;;;18.33;59.09;96851.66;3571263;40;20469;-72
2021/08/09 08:00:16;;;;;;;2.50;1.00;;;;;;;18.24;60.42;96857.84;3574499;40;20473;-73
2021/08/09 08:02:44;;;;;;;2.17;1.10;;;;;;;18.66;58.98;96852.84;3573015;40;20514;-73
2021/08/09 08:05:12;;;;;;;8.70;3.77;;;;;;;19.22;57.57;96850.06;3563697;40;20935;-73
2021/08/09 08:07:40;;;;;;;5.13;1.40;;;;;;;19.18;57.53;96857.50;3563743;40;20562;-74
2021/08/09 08:10:21;;;;;;;3.70;1.37;;;;;;;19.07;56.97;96858.59;3603468;39;20555;-71
2021/08/09 08:12:48;;;;;;;2.60;1.03;;;;;;;18.96;56.38;96856.16;3597520;39;20920;-72
2021/08/09 08:15:17;;;;;;;3.43;0.90;;;;;;;19.01;54.54;96837.13;3601165;39;20822;-72
2021/08/09 08:17:45;;;;;;;6.63;1.00;;;;;;;19.22;53.29;96850.91;3600698;39;20718;-71
2021/08/09 08:20:15;;;;;;;2.70;1.27;;;;;;;19.53;52.40;96848.66;3601734;39;20458;-74
2021/08/09 08:22:43;;;;;;;5.03;1.07;;;;;;;19.14;52.49;96846.34;3599946;39;20969;-74
2021/08/09 08:25:11;;;;;;;2.20;0.80;;;;;;;19.50;52.81;96842.81;3603733;39;20470;-75
2021/08/09 08:27:40;;;;;;;5.03;1.00;;;;;;;19.65;50.65;96843.91;3603085;39;20838;-74
2021/08/09 08:30:09;;;;;;;2.67;1.10;;;;;;;19.61;50.69;96841.72;3602064;39;20882;-75
2021/08/09 08:32:52;;;;;;;1.50;0.87;;;;;;;19.64;47.95;96841.41;3599888;39;20830;-75
2021/08/09 08:35:20;;;;;;;1.63;0.80;;;;;;;19.65;49.80;96848.41;3600553;39;20951;-75
2021/08/09 08:37:48;;;;;;;4.10;1.10;;;;;;;20.04;48.57;96843.50;3601584;39;20463;-74
2021/08/09 08:40:16;;;;;;;3.63;0.83;;;;;;;19.74;49.43;96848.31;3599605;39;20466;-77
2021/08/09 08:42:47;;;;;;;3.93;1.00;;;;;;;19.88;50.17;96838.13;3580359;39;20541;-78
2021/08/09 08:45:19;;;;;;;1.53;0.80;;;;;;;19.76;48.75;96853.50;3599951;39;20467;-77
2021/08/09 08:47:47;;;;;;;1.63;0.87;;;;;;;20.01;48.49;96850.94;3601204;39;20765;-74
2021/08/09 08:50:18;;;;;;;14.73;7.07;;;;;;;20.44;48.24;96841.97;3600376;39;20450;-74
2021/08/09 08:52:48;;;;;;;2.10;0.70;;;;;;;20.77;48.08;96842.09;3605635;39;20947;-77
2021/08/09 08:55:17;;;;;;;1.83;1.27;;;;;;;20.82;46.80;96844.28;3596916;39;21125;-77
2021/08/09 08:57:46;;;;;;;3.57;1.00;;;;;;;20.27;48.06;96854.41;3599435;39;20460;-76
2021/08/09 09:00:17;;;;;;;2.63;0.97;;;;;;;19.91;48.10;96851.88;3600526;39;20980;-76
2021/08/09 09:02:45;;;;;;;2.43;0.90;;;;;;;20.19;48.94;96846.41;3599498;39;20753;-76
2021/08/09 09:05:16;;;;;;;6.20;1.10;;;;;;;20.45;47.89;96848.16;3599028;39;20822;-76
2021/08/09 09:07:45;;;;;;;6.40;1.63;;;;;;;20.74;47.43;96847.78;3606474;39;20802;-77
2021/08/09 09:10:25;;;;;;;1.40;0.90;;;;;;;20.93;46.70;96852.81;3596424;39;20463;-76
2021/08/09 09:13:18;;;;;;;4.30;0.80;;;;;;;21.07;47.17;96859.31;3598742;39;20452;-76
2021/08/09 09:16:05;;;;;;;1.90;0.90;;;;;;;21.08;47.21;96850.31;3599060;39;20552;-77
2021/08/09 09:18:52;;;;;;;5.53;1.00;;;;;;;21.07;46.11;96846.00;3601160;39;20431;-76
2021/08/09 09:21:29;;;;;;;2.03;1.10;;;;;;;21.12;47.05;96851.63;3601721;39;20483;-76
2021/08/09 09:24:07;;;;;;;1.57;0.90;;;;;;;21.32;46.82;96856.63;3592980;39;20440;-76
2021/08/09 09:26:37;;;;;;;2.50;0.90;;;;;;;21.07;45.69;96856.63;3593980;39;20839;-76
2021/08/09 09:29:10;;;;;;;3.73;1.40;;;;;;;21.34;45.78;96859.97;3591941;39;20557;-77
2021/08/09 09:31:47;;;;;;;7.63;1.77;;;;;;;21.07;46.49;96867.28;3593904;39;20452;-76
2021/08/09 09:34:17;;;;;;;2.33;1.20;;;;;;;21.70;46.48;96859.66;3592656;39;20436;-75
2021/08/09 09:36:51;;;;;;;1.47;0.80;;;;;;;22.44;44.77;96868.28;3579846;39;20455;-75
2021/08/09 09:39:34;;;;;;;2.43;0.93;;;;;;;23.18;41.75;96859.03;3589426;39;20823;-76
2021/08/09 09:42:05;;;;;;;3.70;0.80;;;;;;;22.19;44.30;96856.84;3598824;39;20733;-76
2021/08/09 09:44:35;;;;;;;5.57;1.07;;;;;;;22.90;42.24;96859.53;3592807;39;20463;-74
2021/08/09 09:47:22;;;;;;;2.90;1.30;;;;;;;23.00;43.29;96861.97;3602115;39;20953;-74
2021/08/09 09:49:52;;;;;;;2.00;1.20;;;;;;;22.07;44.43;96864.41;3590266;39;20773;-75
2021/08/09 09:52:35;;;;;;;5.23;1.10;;;;;;;22.81;44.28;96865.94;3589349;39;20875;-75
2021/08/09 09:55:07;;;;;;;3.73;1.13;;;;;;;22.65;45.26;96854.31;3589134;39;20476;-74
2021/08/09 09:57:37;;;;;;;1.37;0.87;;;;;;;23.06;46.31;96864.78;3604883;39;20456;-74
2021/08/09 10:00:09;;;;;;;1.67;1.00;;;;;;;22.42;44.47;96864.13;3591072;39;20463;-74
2021/08/09 10:02:38;;;;;;;3.60;0.83;;;;;;;22.15;46.81;96863.53;3589324;39;20808;-74
2021/08/09 10:05:07;;;;;;;4.80;1.33;;;;;;;22.39;46.42;96865.31;3590302;39;20634;-74
2021/08/09 10:07:37;;;;;;;3.13;1.13;;;;;;;22.24;46.46;96873.19;3588545;39;20779;-72
2021/08/09 10:10:08;;;;;;;3.43;0.90;;;;;;;22.33;46.54;96866.00;3589893;39;20968;-71
2021/08/09 10:12:38;;;;;;;4.07;1.13;;;;;;;22.41;46.23;96863.28;3589226;39;20802;-72
2021/08/09 10:15:07;;;;;;;1.60;0.87;;;;;;;22.66;45.41;96869.34;3598427;39;21128;-71
2021/08/09 10:17:39;;;;;;;2.03;1.37;;;;;;;22.50;44.39;96866.75;3591983;39;20485;-73
2021/08/09 10:20:09;;;;;;;5.10;1.00;;;;;;;21.91;46.48;96862.59;3597428;39;20760;-73
2021/08/09 10:22:39;;;;;;;1.60;0.80;;;;;;;22.04;46.91;96869.22;3589546;39;21051;-73
2021/08/09 10:25:09;;;;;;;1.17;0.90;;;;;;;22.08;46.07;96867.88;3588546;39;20897;-73
2021/08/09 10:27:57;;;;;;;7.33;1.63;;;;;;;22.28;46.45;96863.84;3590756;39;20452;-75
2021/08/09 10:30:34;;;;;;;1.47;0.97;;;;;;;22.61;42.59;96871.69;3590255;39;20519;-73
2021/08/09 10:33:08;;;;;;;2.80;0.90;;;;;;;23.33;42.88;96867.13;3591926;39;20448;-73
2021/08/09 10:36:00;;;;;;;3.47;1.00;;;;;;;24.47;39.02;96863.28;3591077;39;20911;-74
2021/08/09 10:38:37;;;;;;;7.97;1.07;;;;;;;24.47;39.22;96860.59;3591204;39;20823;-74
2021/08/09 10:41:39;;;;;;;3.13;1.03;;;;;;;25.25;36.72;96857.41;3591525;39;20457;-74
2021/08/09 10:44:23;;;;;;;1.97;0.90;;;;;;;24.59;38.92;96855.63;3590299;39;20457;-73
2021/08/09 10:46:53;;;;;;;4.47;1.20;;;;;;;25.71;36.89;96846.22;3582267;39;20663;-73
2021/08/09 10:49:57;;;;;;;7.20;1.40;;;;;;;24.61;37.48;96847.41;3596813;39;21004;-73
2021/08/09 10:52:51;;;;;;;2.00;0.97;;;;;;;24.21;37.03;96842.38;3592718;39;20471;-73
2021/08/09 10:55:45;;;;;;;2.50;1.10;;;;;;;23.83;38.10;96853.13;3575676;39;20457;-73
2021/08/09 10:58:53;;;;;;;2.03;0.90;;;;;;;24.17;36.76;96854.47;3592083;39;20890;-72
2021/08/09 11:01:23;;;;;;;1.60;1.07;;;;;;;24.80;36.01;96851.34;3592334;39;20472;-73
2021/08/09 11:04:16;;;;;;;4.30;1.03;;;;;;;25.80;36.79;96839.69;3587517;39;20714;-73
2021/08/09 11:06:53;;;;;;;5.17;1.70;;;;;;;25.42;36.48;96842.72;3582212;39;20465;-73
2021/08/09 11:09:45;;;;;;;4.10;1.13;;;;;;;26.85;32.88;96841.50;3581210;39;20450;-74
2021/08/09 11:12:22;;;;;;;2.80;0.90;;;;;;;26.73;35.64;96841.25;3589696;39;20887;-74
2021/08/09 11:15:16;;;;;;;1.83;0.80;;;;;;;25.42;35.08;96834.69;3590779;39;20842;-74
2021/08/09 11:17:56;;;;;;;2.03;0.90;;;;;;;25.52;35.61;96844.22;3592509;39;21377;-74
2021/08/09 11:20:27;;;;;;;3.33;1.10;;;;;;;24.66;36.63;96847.69;3592152;39;20540;-73
2021/08/09 11:23:04;;;;;;;2.23;0.93;;;;;;;23.66;38.79;96840.94;3590936;39;20851;-73
2021/08/09 11:25:36;;;;;;;1.70;1.00;;;;;;;23.51;38.04;96848.91;3591131;39;20920;-73
2021/08/09 11:28:08;;;;;;;3.03;1.20;;;;;;;24.20;36.97;96847.91;3589510;39;20439;-73
2021/08/09 11:30:42;;;;;;;3.60;1.30;;;;;;;25.33;34.14;96838.50;3589389;39;20824;-73
2021/08/09 11:33:28;;;;;;;1.73;0.90;;;;;;;26.23;33.72;96842.25;3591185;39;20444;-74
2021/08/09 11:35:59;;;;;;;1.10;0.90;;;;;;;25.42;33.88;96848.09;3591454;39;20564;-73
2021/08/09 11:38:28;;;;;;;4.73;1.30;;;;;;;24.20;35.72;96854.06;3592401;39;20934;-73
2021/08/09 11:41:05;;;;;;;1.80;0.80;;;;;;;23.78;35.15;96850.19;3587216;39;20828;-73
2021/08/09 11:43:34;;;;;;;2.30;0.97;;;;;;;23.03;37.20;96861.63;3589754;39;20536;-73
2021/08/09 11:46:03;;;;;;;4.60;1.03;;;;;;;22.36;38.50;96851.47;3589165;39;20464;-73
2021/08/09 11:48:37;;;;;;;1.43;1.10;;;;;;;22.68;37.07;96845.16;3582992;39;20603;-73
2021/08/09 11:51:07;;;;;;;5.90;1.33;;;;;;;23.38;36.91;96838.81;3591780;39;20818;-72
2021/08/09 11:53:48;;;;;;;2.70;1.30;;;;;;;24.32;34.54;96832.22;3589722;39;20456;-73